Time;durP1;ratioP1;P1;durP2;ratioP2;P2;SDS_P1;SDS_P2;PMS_P1;PMS_P2;Temp;Humidity;BMP_temperature;BMP_pressure;BME280_temperature;BME280_humidity;BME280_pressure;Samples;Min_cycle;Max_cycle;Signal;HPM_P1;HPM_P2
2021/09/02 00:02:11;;;;;;;5.58;3.80;;;;;;;13.34;70.69;101530.62;1797825;77;26975;-66
2021/09/02 00:04:37;;;;;;;6.65;4.03;;;;;;;13.31;70.79;101540.16;1788696;78;26313;-66
2021/09/02 00:07:03;;;;;;;12.45;4.70;;;;;;;13.28;70.80;101535.78;1768353;78;25783;-65
2021/09/02 00:09:29;;;;;;;9.18;4.35;;;;;;;13.25;70.84;101529.64;1746646;80;26409;-65
2021/09/02 00:11:57;;;;;;;11.50;4.03;;;;;;;13.23;70.96;101534.22;1746812;79;26505;-65
2021/09/02 00:14:24;;;;;;;8.60;4.37;;;;;;;13.21;70.97;101538.78;1805768;77;27494;-66
2021/09/02 00:16:50;;;;;;;11.18;5.15;;;;;;;13.15;71.04;101537.17;1804258;78;26190;-66
2021/09/02 00:19:17;;;;;;;6.58;3.72;;;;;;;13.13;71.12;101539.05;1762881;80;25922;-65
2021/09/02 00:21:45;;;;;;;9.05;4.75;;;;;;;13.09;71.20;101540.11;1744761;80;25794;-66
2021/09/02 00:24:11;;;;;;;7.75;4.17;;;;;;;13.06;71.32;101541.58;1733412;80;26372;-66
2021/09/02 00:26:40;;;;;;;9.45;4.55;;;;;;;13.03;71.41;101547.08;1761680;80;28178;-65
2021/09/02 00:29:05;;;;;;;10.85;4.75;;;;;;;13.03;71.45;101540.35;1760465;80;25856;-65
2021/09/02 00:31:31;;;;;;;5.08;3.77;;;;;;;13.00;71.58;101527.89;1747128;80;25761;-66
2021/09/02 00:33:57;;;;;;;8.83;5.17;;;;;;;12.99;71.63;101536.94;1747277;81;25827;-65
2021/09/02 00:36:23;;;;;;;9.35;4.60;;;;;;;12.98;71.76;101538.34;1749794;80;25889;-65
2021/09/02 00:38:48;;;;;;;11.68;4.87;;;;;;;12.96;71.83;101540.22;1760012;80;27647;-65
2021/09/02 00:41:14;;;;;;;6.05;4.30;;;;;;;12.94;71.78;101542.09;1749716;79;25846;-65
2021/09/02 00:43:42;;;;;;;11.28;4.97;;;;;;;12.91;71.90;101543.55;1741797;81;25948;-66
2021/09/02 00:46:16;;;;;;;12.65;4.87;;;;;;;12.88;72.02;101546.36;1750642;81;25827;-65
2021/09/02 00:48:46;;;;;;;9.90;4.28;;;;;;;12.88;72.10;101543.67;1759947;80;26285;-65
2021/09/02 00:51:15;;;;;;;8.95;4.65;;;;;;;12.84;72.14;101541.56;1760665;80;27462;-64
2021/09/02 00:53:45;;;;;;;10.10;4.97;;;;;;;12.80;72.34;101549.34;1742661;81;25769;-63
2021/09/02 00:56:11;;;;;;;9.98;5.22;;;;;;;12.78;72.45;101550.34;1752602;79;25830;-65
2021/09/02 00:58:37;;;;;;;13.28;5.33;;;;;;;12.77;72.58;101551.27;1753011;79;26524;-65
2021/09/02 01:01:04;;;;;;;10.75;5.78;;;;;;;12.78;72.66;101557.06;1743009;81;25722;-65
2021/09/02 01:03:30;;;;;;;9.55;4.65;;;;;;;12.80;72.82;101557.89;1743238;80;28444;-65
2021/09/02 01:05:56;;;;;;;9.93;4.62;;;;;;;12.81;72.85;101556.95;1748072;79;25884;-66
2021/09/02 01:08:22;;;;;;;14.68;5.22;;;;;;;12.80;72.82;101553.85;1758277;80;26232;-65
2021/09/02 01:10:49;;;;;;;9.43;5.40;;;;;;;12.77;72.93;101553.50;1741481;81;25853;-65
2021/09/02 01:13:20;;;;;;;8.73;5.03;;;;;;;12.78;73.04;101559.76;1737742;80;26165;-65
2021/09/02 01:15:46;;;;;;;9.48;4.85;;;;;;;12.77;73.07;101552.16;1768209;79;28012;-64
2021/09/02 01:18:12;;;;;;;9.63;4.28;;;;;;;12.74;73.11;101562.16;1806901;78;25847;-64
2021/09/02 01:20:38;;;;;;;13.32;5.70;;;;;;;12.71;73.12;101562.27;1806992;78;25751;-65
2021/09/02 01:23:06;;;;;;;11.45;5.20;;;;;;;12.64;73.31;101558.93;1809178;78;25865;-64
2021/09/02 01:25:42;;;;;;;12.45;5.53;;;;;;;12.61;73.39;101558.58;1785369;79;25793;-64
2021/09/02 01:28:11;;;;;;;8.25;5.35;;;;;;;12.60;73.43;101556.82;1793647;79;27538;-64
2021/09/02 01:30:39;;;;;;;11.00;5.12;;;;;;;12.57;73.45;101558.28;1781188;79;25768;-64
2021/09/02 01:33:07;;;;;;;10.75;5.17;;;;;;;12.54;73.55;101553.02;1797907;78;25808;-64
2021/09/02 01:35:35;;;;;;;8.98;5.37;;;;;;;12.47;73.54;101542.55;1784755;79;25821;-65
2021/09/02 01:38:06;;;;;;;12.75;5.65;;;;;;;12.49;73.61;101555.00;1794317;79;26438;-64
2021/09/02 01:40:43;;;;;;;8.75;5.30;;;;;;;12.47;73.67;101554.64;1810315;78;28228;-64
2021/09/02 01:43:12;;;;;;;10.93;5.65;;;;;;;12.45;73.71;101551.13;1794250;77;26579;-64
2021/09/02 01:45:39;;;;;;;10.25;5.22;;;;;;;12.41;73.83;101550.83;1749218;80;25943;-64
2021/09/02 01:48:06;;;;;;;15.23;6.00;;;;;;;12.39;73.88;101558.08;1801746;78;26411;-64
2021/09/02 01:50:36;;;;;;;11.08;6.08;;;;;;;12.38;73.93;101556.32;1801511;77;26110;-64
2021/09/02 01:53:13;;;;;;;9.63;5.33;;;;;;;12.36;74.04;101559.06;1809212;78;27535;-65
2021/09/02 01:55:43;;;;;;;13.35;6.30;;;;;;;12.36;74.07;101557.72;1784159;79;25737;-65
2021/09/02 01:58:09;;;;;;;10.53;6.37;;;;;;;12.35;74.25;101552.81;1741012;80;25883;-64
2021/09/02 02:00:36;;;;;;;12.88;5.62;;;;;;;12.38;74.33;101550.48;1802617;78;25754;-64
2021/09/02 02:03:04;;;;;;;9.93;5.60;;;;;;;12.41;74.42;101549.48;1802431;78;25890;-64
2021/09/02 02:05:30;;;;;;;12.07;6.10;;;;;;;12.42;74.43;101553.93;1777896;80;27510;-65
2021/09/02 02:07:59;;;;;;;12.58;6.40;;;;;;;12.43;74.53;101546.28;1753275;80;26310;-64
2021/09/02 02:10:29;;;;;;;12.35;6.80;;;;;;;12.43;74.64;101551.19;1748580;80;26384;-65
2021/09/02 02:12:57;;;;;;;12.60;6.17;;;;;;;12.43;74.73;101552.53;1764120;80;26362;-64
2021/09/02 02:15:24;;;;;;;10.45;6.12;;;;;;;12.46;74.76;101555.11;1748230;80;26491;-65
2021/09/02 02:17:51;;;;;;;14.78;6.53;;;;;;;12.46;74.84;101553.77;1763238;79;28103;-64
2021/09/02 02:20:17;;;;;;;13.80;6.42;;;;;;;12.48;74.94;101551.02;1785923;78;25845;-65
2021/09/02 02:22:44;;;;;;;10.53;6.10;;;;;;;12.48;74.97;101546.98;1815819;77;25809;-64
2021/09/02 02:25:12;;;;;;;12.20;6.10;;;;;;;12.49;74.97;101550.09;1778229;78;25836;-64
2021/09/02 02:27:39;;;;;;;11.55;5.97;;;;;;;12.46;74.94;101549.73;1803940;77;25733;-65
2021/09/02 02:30:10;;;;;;;10.03;5.45;;;;;;;12.44;75.03;101548.03;1812399;78;27420;-64
2021/09/02 02:32:36;;;;;;;10.80;5.97;;;;;;;12.41;74.99;101549.02;1794055;77;25756;-64
2021/09/02 02:35:03;;;;;;;11.43;6.83;;;;;;;12.35;75.11;101545.21;1809903;78;25947;-65
2021/09/02 02:37:29;;;;;;;13.18;6.60;;;;;;;12.29;75.09;101543.62;1815155;78;25807;-65
2021/09/02 02:39:54;;;;;;;17.60;6.05;;;;;;;12.26;75.17;101544.20;1802236;78;25834;-65
2021/09/02 02:42:21;;;;;;;10.30;5.95;;;;;;;12.22;75.20;101539.40;1807417;77;28220;-64
2021/09/02 02:44:47;;;;;;;13.98;6.83;;;;;;;12.19;75.18;101539.97;1806989;77;26230;-65
2021/09/02 02:47:12;;;;;;;14.50;7.03;;;;;;;12.15;75.26;101541.02;1783232;78;26693;-65
2021/09/02 02:49:39;;;;;;;13.70;5.75;;;;;;;12.12;75.31;101537.97;1817232;78;25855;-64
2021/09/02 02:52:08;;;;;;;13.32;6.47;;;;;;;12.07;75.30;101537.72;1807151;78;25784;-65
2021/09/02 02:54:37;;;;;;;13.75;7.42;;;;;;;12.03;75.37;101535.14;1787414;78;27377;-63
2021/09/02 02:57:04;;;;;;;11.20;6.70;;;;;;;12.00;75.50;101536.59;1814942;77;27186;-64
2021/09/02 02:59:30;;;;;;;12.88;7.08;;;;;;;11.97;75.42;101535.36;1755067;78;25779;-63
2021/09/02 03:01:56;;;;;;;12.35;7.08;;;;;;;11.92;75.54;101535.98;1790128;78;26334;-64
2021/09/02 03:04:22;;;;;;;11.33;6.62;;;;;;;11.88;75.53;101542.39;1755426;80;25896;-64
2021/09/02 03:06:48;;;;;;;17.30;7.12;;;;;;;11.84;75.60;101541.20;1772560;78;27445;-64
2021/09/02 03:09:14;;;;;;;21.17;8.18;;;;;;;11.78;75.71;101536.92;1738818;80;25842;-64
2021/09/02 03:11:40;;;;;;;13.15;6.97;;;;;;;11.77;75.76;101540.97;1811601;78;25774;-64
2021/09/02 03:14:06;;;;;;;14.07;7.20;;;;;;;11.73;75.86;101543.34;1816865;77;25863;-64
2021/09/02 03:16:32;;;;;;;15.10;6.90;;;;;;;11.70;76.02;101546.55;1795772;77;26350;-64
2021/09/02 03:18:58;;;;;;;16.95;7.92;;;;;;;11.69;76.09;101542.11;1798939;77;27571;-64
2021/09/02 03:21:24;;;;;;;15.03;6.80;;;;;;;11.67;76.23;101542.63;1817105;77;25894;-64
2021/09/02 03:23:50;;;;;;;15.05;8.15;;;;;;;11.67;76.29;101539.06;1807905;77;25719;-65
2021/09/02 03:26:16;;;;;;;19.42;8.40;;;;;;;11.66;76.40;101541.33;1809242;77;25871;-65
2021/09/02 03:28:42;;;;;;;17.35;8.10;;;;;;;11.67;76.44;101541.28;1816237;77;25892;-65
2021/09/02 03:31:08;;;;;;;19.42;7.72;;;;;;;11.66;76.48;101539.98;1800359;77;27479;-64
2021/09/02 03:33:35;;;;;;;16.80;7.50;;;;;;;11.66;76.55;101542.67;1799044;77;25865;-65
2021/09/02 03:36:01;;;;;;;15.80;7.72;;;;;;;11.65;76.56;101546.29;1812575;77;25799;-64
2021/09/02 03:38:29;;;;;;;13.55;6.95;;;;;;;11.64;76.57;101543.19;1805526;77;26000;-64
2021/09/02 03:40:56;;;;;;;14.05;7.80;;;;;;;11.62;76.63;101542.36;1820016;78;25649;-64
2021/09/02 03:43:22;;;;;;;15.93;7.35;;;;;;;11.60;76.72;101544.22;1811116;79;27492;-65
2021/09/02 03:45:48;;;;;;;15.32;7.53;;;;;;;11.59;76.82;101544.69;1811419;79;25871;-65
2021/09/02 03:48:16;;;;;;;17.60;7.60;;;;;;;11.59;76.82;101558.58;1758153;80;25669;-65
2021/09/02 03:50:42;;;;;;;11.22;6.90;;;;;;;11.59;76.90;101558.58;1809676;78;25790;-64
2021/09/02 03:53:08;;;;;;;15.90;8.70;;;;;;;11.57;76.94;101550.57;1782030;80;25690;-64
2021/09/02 03:55:34;;;;;;;20.12;7.95;;;;;;;11.57;77.11;101551.03;1811419;79;28047;-64
2021/09/02 03:57:59;;;;;;;15.38;7.12;;;;;;;11.58;77.19;101556.81;1781813;80;26046;-64
2021/09/02 04:00:25;;;;;;;13.03;7.92;;;;;;;11.54;77.17;101557.84;1811294;78;25783;-64
2021/09/02 04:02:51;;;;;;;18.48;7.42;;;;;;;11.52;77.23;101561.05;1758296;81;25912;-64
2021/09/02 04:05:18;;;;;;;19.10;7.95;;;;;;;11.51;77.26;101561.52;1811554;79;25844;-64
2021/09/02 04:07:44;;;;;;;19.17;7.87;;;;;;;11.50;77.34;101563.78;1781939;80;27421;-64
2021/09/02 04:10:11;;;;;;;14.65;6.90;;;;;;;11.49;77.33;101555.78;1811283;79;25606;-63
2021/09/02 04:12:37;;;;;;;13.75;7.33;;;;;;;11.46;77.41;101561.25;1781887;80;25687;-64
2021/09/02 04:15:04;;;;;;;14.75;7.72;;;;;;;11.46;77.50;101559.91;1811523;79;25884;-64
2021/09/02 04:17:30;;;;;;;12.45;7.30;;;;;;;11.44;77.53;101568.47;1757253;81;25620;-64
2021/09/02 04:19:56;;;;;;;12.75;7.62;;;;;;;11.41;77.68;101560.05;1775068;78;27543;-64
2021/09/02 04:22:22;;;;;;;14.90;8.30;;;;;;;11.39;77.78;101565.94;1774474;78;25736;-64
2021/09/02 04:24:48;;;;;;;20.80;7.87;;;;;;;11.40;77.86;101565.01;1775500;78;25822;-64
2021/09/02 04:27:14;;;;;;;13.72;7.80;;;;;;;11.42;78.00;101564.95;1778773;78;25891;-64
2021/09/02 04:29:41;;;;;;;22.93;8.13;;;;;;;11.44;78.02;101567.12;1759713;79;25851;-63
2021/09/02 04:32:09;;;;;;;19.55;8.45;;;;;;;11.45;78.04;101567.55;1786221;78;27561;-60
2021/09/02 04:34:37;;;;;;;20.80;9.05;;;;;;;11.46;78.09;101570.64;1794629;78;25958;-61
2021/09/02 04:37:05;;;;;;;16.32;8.18;;;;;;;11.47;78.12;101563.00;1790328;78;25807;-61
2021/09/02 04:39:31;;;;;;;15.45;7.95;;;;;;;11.49;78.17;101566.52;1787114;78;26201;-61
2021/09/02 04:41:58;;;;;;;23.22;9.20;;;;;;;11.49;78.18;101561.15;1814598;78;26576;-61
2021/09/02 04:44:24;;;;;;;14.30;8.40;;;;;;;11.50;78.21;101566.47;1799268;78;27487;-61
2021/09/02 04:46:50;;;;;;;11.88;8.20;;;;;;;11.53;78.30;101565.48;1778278;78;27183;-60
2021/09/02 04:49:16;;;;;;;20.15;8.70;;;;;;;11.53;78.35;101564.15;1758444;79;25930;-61
2021/09/02 04:51:42;;;;;;;17.92;8.98;;;;;;;11.58;78.42;101566.22;1760520;79;26169;-61
2021/09/02 04:54:08;;;;;;;18.37;8.40;;;;;;;11.59;78.42;101563.95;1756781;79;26461;-61
2021/09/02 04:56:34;;;;;;;22.62;8.73;;;;;;;11.60;78.52;101561.67;1789961;78;27366;-62
2021/09/02 04:59:00;;;;;;;14.20;8.50;;;;;;;11.62;78.64;101574.12;1790771;78;25801;-62
2021/09/02 05:01:26;;;;;;;20.88;9.48;;;;;;;11.63;78.72;101573.20;1793021;78;25845;-62
2021/09/02 05:03:52;;;;;;;18.85;9.53;;;;;;;11.68;78.84;101570.36;1791664;78;26195;-62
2021/09/02 05:06:18;;;;;;;17.10;8.30;;;;;;;11.71;78.84;101572.48;1793562;78;25737;-62
2021/09/02 05:08:44;;;;;;;17.98;8.33;;;;;;;11.74;78.85;101574.64;1756665;79;27589;-62
2021/09/02 05:11:10;;;;;;;13.00;7.90;;;;;;;11.79;78.88;101576.75;1790959;78;25735;-62
2021/09/02 05:13:36;;;;;;;17.48;8.60;;;;;;;11.82;78.91;101580.20;1791155;78;25905;-62
2021/09/02 05:16:02;;;;;;;14.98;8.48;;;;;;;11.87;78.94;101584.96;1800315;78;25798;-63
2021/09/02 05:18:28;;;;;;;20.90;9.13;;;;;;;11.91;78.95;101581.24;1808675;77;26452;-62
2021/09/02 05:20:54;;;;;;;21.37;8.83;;;;;;;11.98;78.96;101581.91;1772726;78;26759;-62
2021/09/02 05:23:20;;;;;;;16.10;8.10;;;;;;;12.03;79.01;101579.95;1789770;79;25804;-62
2021/09/02 05:25:46;;;;;;;18.45;8.35;;;;;;;12.09;79.02;101578.86;1771728;78;25834;-63
2021/09/02 05:28:11;;;;;;;13.85;7.70;;;;;;;12.15;79.04;101588.92;1780927;78;26000;-63
2021/09/02 05:30:37;;;;;;;19.82;8.55;;;;;;;12.21;79.02;101586.48;1812232;78;26385;-62
2021/09/02 05:33:03;;;;;;;18.37;9.28;;;;;;;12.25;79.02;101586.33;1772903;78;27443;-61
2021/09/02 05:35:29;;;;;;;15.15;8.35;;;;;;;12.32;79.06;101582.49;1761876;78;26360;-62
2021/09/02 05:37:55;;;;;;;19.67;9.23;;;;;;;12.38;79.12;101583.20;1806763;78;26434;-62
2021/09/02 05:40:21;;;;;;;15.40;9.25;;;;;;;12.45;79.11;101586.97;1776885;79;27978;-61
2021/09/02 05:42:47;;;;;;;17.32;8.55;;;;;;;12.51;79.09;101579.14;1800467;78;25717;-61
2021/09/02 05:45:13;;;;;;;15.93;8.48;;;;;;;12.57;79.09;101587.86;1800851;77;27548;-62
2021/09/02 05:47:41;;;;;;;19.95;7.92;;;;;;;12.63;79.15;101590.33;1773998;78;25931;-61
2021/09/02 05:50:08;;;;;;;20.77;8.85;;;;;;;12.67;79.14;101589.75;1789848;77;25843;-61
2021/09/02 05:52:34;;;;;;;13.08;8.05;;;;;;;12.76;79.24;101589.87;1813572;78;26281;-62
2021/09/02 05:55:00;;;;;;;24.23;7.85;;;;;;;12.80;79.22;101591.05;1809353;78;25723;-61
2021/09/02 05:57:27;;;;;;;19.70;9.18;;;;;;;12.86;79.19;101585.91;1799232;78;29684;-62
2021/09/02 05:59:52;;;;;;;23.77;8.73;;;;;;;12.90;79.21;101593.80;1766932;78;25781;-62
2021/09/02 06:02:18;;;;;;;23.60;8.08;;;;;;;12.95;79.21;101595.85;1765219;78;26172;-62
2021/09/02 06:04:44;;;;;;;14.50;7.87;;;;;;;13.00;79.29;101591.14;1752741;78;26484;-62
2021/09/02 06:07:11;;;;;;;18.20;8.75;;;;;;;13.08;79.33;101588.62;1792924;77;25769;-62
2021/09/02 06:09:37;;;;;;;26.05;8.48;;;;;;;13.14;79.34;101586.56;1806666;78;27518;-62
2021/09/02 06:12:04;;;;;;;30.30;8.65;;;;;;;13.19;79.34;101588.65;1759688;78;25919;-61
2021/09/02 06:14:30;;;;;;;21.75;8.43;;;;;;;13.28;79.36;101594.14;1793087;78;25863;-61
2021/09/02 06:16:56;;;;;;;29.27;9.53;;;;;;;13.35;79.37;101594.30;1801287;78;26489;-61
2021/09/02 06:19:23;;;;;;;24.82;8.70;;;;;;;13.45;79.34;101594.81;1787979;79;25776;-61
2021/09/02 06:21:50;;;;;;;25.85;8.60;;;;;;;13.38;79.31;101565.91;1743005;80;26000;-62
2021/09/02 06:24:15;;;;;;;16.32;7.87;;;;;;;13.60;79.35;101593.73;1758320;78;25817;-61
2021/09/02 06:26:41;;;;;;;29.55;9.03;;;;;;;13.70;79.37;101595.58;1773118;78;26155;-61
2021/09/02 06:29:07;;;;;;;21.48;7.40;;;;;;;13.78;79.33;101593.44;1769027;79;25864;-62
2021/09/02 06:31:33;;;;;;;25.15;8.08;;;;;;;13.90;79.44;101591.58;1734413;78;25800;-61
2021/09/02 06:33:59;;;;;;;19.65;6.70;;;;;;;14.02;79.42;101598.74;1751226;79;29694;-61
2021/09/02 06:36:25;;;;;;;14.13;6.55;;;;;;;14.10;79.38;101593.91;1807201;78;25755;-61
2021/09/02 06:38:51;;;;;;;11.22;6.75;;;;;;;14.18;79.33;101593.10;1765577;79;25866;-61
2021/09/02 06:41:17;;;;;;;13.25;6.83;;;;;;;14.26;79.33;101593.17;1764106;78;25830;-62
2021/09/02 06:43:43;;;;;;;14.70;6.72;;;;;;;14.32;79.29;101598.77;1771101;78;25769;-62
2021/09/02 06:46:09;;;;;;;14.35;6.22;;;;;;;14.39;79.20;101599.38;1770021;78;27480;-61
2021/09/02 06:48:34;;;;;;;17.62;7.33;;;;;;;14.48;79.18;101607.10;1783163;78;26014;-61
2021/09/02 06:51:01;;;;;;;17.87;7.40;;;;;;;14.57;79.12;101608.92;1772794;78;25865;-61
2021/09/02 06:53:26;;;;;;;17.60;6.08;;;;;;;14.63;79.04;101601.02;1755496;79;25744;-61
2021/09/02 06:55:52;;;;;;;17.75;6.95;;;;;;;14.76;79.10;101601.34;1808603;78;25703;-61
2021/09/02 06:58:18;;;;;;;12.82;5.45;;;;;;;14.86;78.92;101601.33;1810326;77;27564;-61
2021/09/02 07:00:44;;;;;;;16.17;6.60;;;;;;;14.92;78.74;101611.84;1790167;78;25776;-61
2021/09/02 07:03:11;;;;;;;11.83;6.72;;;;;;;14.96;78.62;101601.31;1791847;78;25823;-60
2021/09/02 07:05:37;;;;;;;15.20;5.30;;;;;;;14.99;78.43;101610.62;1788869;79;27854;-60
2021/09/02 07:08:05;;;;;;;14.43;6.28;;;;;;;15.06;78.37;101617.48;1754430;79;25766;-60
2021/09/02 07:10:31;;;;;;;12.68;5.97;;;;;;;15.12;78.24;101618.55;1790556;79;27479;-61
2021/09/02 07:12:57;;;;;;;16.90;5.55;;;;;;;15.21;78.09;101618.12;1754514;79;26067;-61
2021/09/02 07:15:23;;;;;;;14.47;6.20;;;;;;;15.29;77.92;101616.87;1744000;80;25889;-61
2021/09/02 07:17:50;;;;;;;15.23;5.85;;;;;;;15.36;77.71;101629.15;1736374;80;25803;-62
2021/09/02 07:20:18;;;;;;;19.77;6.45;;;;;;;15.40;77.48;101632.11;1781906;78;26436;-61
2021/09/02 07:22:44;;;;;;;14.95;6.55;;;;;;;15.43;77.14;101628.78;1789362;78;27490;-61
2021/09/02 07:25:12;;;;;;;16.17;6.05;;;;;;;15.47;76.99;101639.84;1780803;78;25788;-61
2021/09/02 07:27:38;;;;;;;15.20;5.97;;;;;;;15.52;76.87;101624.77;1781968;78;25771;-62
2021/09/02 07:30:06;;;;;;;10.82;4.80;;;;;;;15.61;76.76;101621.61;1802777;78;26271;-62
2021/09/02 07:32:32;;;;;;;9.75;5.05;;;;;;;15.68;76.59;101621.72;1798629;78;25785;-62
2021/09/02 07:34:58;;;;;;;22.75;5.08;;;;;;;15.76;76.48;101622.22;1812947;77;28561;-62
2021/09/02 07:37:24;;;;;;;15.45;5.08;;;;;;;15.81;76.38;101624.22;1788575;79;25810;-62
2021/09/02 07:39:50;;;;;;;13.68;5.05;;;;;;;15.93;76.14;101629.97;1743636;80;26529;-62
2021/09/02 07:42:16;;;;;;;14.87;5.58;;;;;;;16.00;75.80;101629.58;1764850;78;26195;-62
2021/09/02 07:44:43;;;;;;;10.68;4.92;;;;;;;16.05;75.60;101628.88;1765371;78;25819;-63
2021/09/02 07:47:10;;;;;;;11.75;5.20;;;;;;;16.10;75.55;101630.87;1776601;78;29631;-63
2021/09/02 07:49:36;;;;;;;8.45;4.72;;;;;;;16.22;75.41;101628.89;1772917;78;27204;-62
2021/09/02 07:52:02;;;;;;;11.22;5.45;;;;;;;16.33;75.13;101635.11;1769381;78;25757;-63
2021/09/02 07:54:28;;;;;;;7.67;4.92;;;;;;;16.40;74.87;101633.84;1758777;78;26227;-63
2021/09/02 07:56:54;;;;;;;15.65;5.37;;;;;;;16.44;74.54;101627.31;1781101;78;25780;-62
2021/09/02 07:59:21;;;;;;;13.95;5.12;;;;;;;16.52;74.30;101625.08;1766687;78;27327;-63
2021/09/02 08:01:47;;;;;;;9.53;5.03;;;;;;;16.62;74.04;101631.36;1816339;78;25762;-63
2021/09/02 08:04:14;;;;;;;10.05;4.83;;;;;;;16.73;73.87;101632.58;1793138;77;25907;-63
2021/09/02 08:06:40;;;;;;;16.52;5.42;;;;;;;16.84;73.71;101631.52;1787527;79;25834;-63
2021/09/02 08:09:05;;;;;;;15.28;6.00;;;;;;;16.97;73.54;101635.80;1749897;79;25999;-63
2021/09/02 08:11:32;;;;;;;7.42;4.62;;;;;;;17.05;73.25;101648.45;1777235;78;27930;-63
2021/09/02 08:13:59;;;;;;;9.35;4.92;;;;;;;17.11;72.81;101645.41;1770868;78;25581;-63
2021/09/02 08:16:25;;;;;;;14.87;5.35;;;;;;;17.15;72.36;101643.41;1768701;78;25636;-64
2021/09/02 08:18:52;;;;;;;10.13;4.75;;;;;;;17.20;71.93;101648.09;1756458;78;26429;-64
2021/09/02 08:21:19;;;;;;;9.43;4.78;;;;;;;17.32;71.58;101638.41;1768390;78;25766;-63
2021/09/02 08:23:45;;;;;;;12.40;5.97;;;;;;;17.44;71.10;101644.50;1783140;78;27498;-63
2021/09/02 08:26:11;;;;;;;8.93;4.87;;;;;;;17.52;70.74;101648.53;1763203;78;26430;-63
2021/09/02 08:28:37;;;;;;;9.18;4.35;;;;;;;17.59;70.27;101642.28;1800366;78;25782;-62
2021/09/02 08:31:13;;;;;;;11.73;4.60;;;;;;;17.65;69.55;101651.91;1776409;78;26320;-62
2021/09/02 08:33:39;;;;;;;7.40;4.58;;;;;;;17.68;69.04;101651.28;1786933;79;25778;-63
2021/09/02 08:36:05;;;;;;;9.95;5.08;;;;;;;17.72;68.12;101644.72;1769675;78;27489;-62
2021/09/02 08:38:31;;;;;;;7.92;4.35;;;;;;;17.79;67.42;101645.24;1774293;78;26077;-63
2021/09/02 08:40:57;;;;;;;8.05;4.85;;;;;;;17.89;67.42;101652.36;1765651;80;25754;-63
2021/09/02 08:43:24;;;;;;;5.83;4.12;;;;;;;18.00;66.80;101648.55;1773625;79;26306;-62
2021/09/02 08:45:50;;;;;;;12.98;4.53;;;;;;;18.02;64.53;101644.78;1776526;79;25786;-64
2021/09/02 08:48:18;;;;;;;5.85;3.98;;;;;;;18.11;64.33;101640.17;1741909;80;27501;-64
2021/09/02 08:50:44;;;;;;;9.95;4.70;;;;;;;18.19;63.97;101642.44;1808803;78;25714;-63
2021/09/02 08:53:10;;;;;;;8.10;4.78;;;;;;;18.23;64.29;101641.25;1817800;78;25966;-64
2021/09/02 08:55:36;;;;;;;12.15;5.12;;;;;;;18.31;64.13;101640.80;1815710;78;25792;-64
2021/09/02 08:58:03;;;;;;;7.65;4.50;;;;;;;18.38;63.76;101644.89;1825266;77;25866;-63
2021/09/02 09:00:30;;;;;;;8.93;4.10;;;;;;;18.48;63.21;101651.03;1769188;78;28261;-64
2021/09/02 09:03:02;;;;;;;9.48;5.50;;;;;;;18.50;63.19;101635.52;1808710;78;25824;-64
2021/09/02 09:05:32;;;;;;;6.08;4.00;;;;;;;18.52;62.82;101641.34;1801457;77;25703;-63
2021/09/02 09:07:58;;;;;;;11.33;4.05;;;;;;;18.57;62.12;101627.88;1776543;78;26793;-64
2021/09/02 09:10:28;;;;;;;7.22;4.10;;;;;;;18.66;61.21;101632.78;1774112;78;25833;-64
2021/09/02 09:13:00;;;;;;;7.20;4.22;;;;;;;18.71;61.31;101637.93;1817119;77;27440;-64
2021/09/02 09:15:33;;;;;;;8.83;4.03;;;;;;;18.74;61.10;101628.23;1795640;77;25767;-62
2021/09/02 09:18:21;;;;;;;8.48;4.45;;;;;;;18.78;60.03;101630.67;1781480;79;25745;-63
2021/09/02 09:21:13;;;;;;;12.23;4.90;;;;;;;18.84;58.95;101630.77;1768326;78;27905;-63
2021/09/02 09:24:06;;;;;;;8.75;4.30;;;;;;;18.92;59.58;101627.09;1763995;78;25780;-63
2021/09/02 09:26:35;;;;;;;9.70;4.28;;;;;;;18.99;58.36;101629.81;1771401;79;27964;-62
2021/09/02 09:29:17;;;;;;;12.30;4.42;;;;;;;19.00;58.16;101631.56;1795643;78;25768;-63
2021/09/02 09:31:43;;;;;;;12.68;4.40;;;;;;;19.02;57.42;101633.70;1746138;79;25679;-63
2021/09/02 09:34:09;;;;;;;6.00;4.50;;;;;;;19.07;57.65;101629.33;1753976;79;25814;-63
2021/09/02 09:36:39;;;;;;;12.37;4.83;;;;;;;19.12;57.32;101623.99;1812463;78;26300;-63
2021/09/02 09:39:12;;;;;;;7.37;4.92;;;;;;;19.18;57.20;101628.66;1811534;78;27495;-63
2021/09/02 09:41:47;;;;;;;6.78;4.50;;;;;;;19.26;56.68;101631.75;1816096;77;25816;-63
2021/09/02 09:44:28;;;;;;;14.85;4.33;;;;;;;19.36;56.31;101643.78;1811273;77;26544;-63
2021/09/02 09:47:16;;;;;;;13.62;4.78;;;;;;;19.34;55.38;101628.06;1790743;79;25981;-63
2021/09/02 09:49:55;;;;;;;13.40;4.78;;;;;;;19.40;55.63;101623.09;1747350;79;25889;-63
2021/09/02 09:52:32;;;;;;;9.38;4.75;;;;;;;19.48;55.23;101624.45;1784437;78;27365;-63
2021/09/02 09:55:12;;;;;;;9.85;5.10;;;;;;;19.57;55.01;101624.75;1775959;78;25839;-63
2021/09/02 09:57:41;;;;;;;12.63;5.03;;;;;;;19.58;55.15;101631.06;1783073;78;26540;-62
2021/09/02 10:00:11;;;;;;;12.65;4.50;;;;;;;19.62;54.84;101626.69;1768707;78;25754;-62
2021/09/02 10:02:48;;;;;;;7.53;4.55;;;;;;;19.72;54.55;101626.95;1781717;79;25767;-63
2021/09/02 10:05:16;;;;;;;9.53;4.72;;;;;;;19.80;53.50;101612.84;1771656;78;29229;-63
2021/09/02 10:07:46;;;;;;;12.13;5.10;;;;;;;19.80;53.69;101623.73;1745725;80;27241;-63
2021/09/02 10:10:15;;;;;;;11.03;4.35;;;;;;;19.82;53.68;101621.78;1803280;78;25939;-63
2021/09/02 10:12:44;;;;;;;11.18;6.00;;;;;;;19.85;53.58;101619.73;1802838;77;25755;-63
2021/09/02 10:15:14;;;;;;;10.82;4.67;;;;;;;19.94;53.51;101619.59;1788890;79;26348;-62
2021/09/02 10:17:42;;;;;;;11.97;5.47;;;;;;;19.94;53.76;101618.23;1791478;78;27508;-63
2021/09/02 10:20:24;;;;;;;15.85;5.58;;;;;;;20.12;53.93;101615.64;1785097;79;25804;-62
2021/09/02 10:22:57;;;;;;;7.12;4.42;;;;;;;20.12;53.93;101615.64;1777608;78;25792;-64
2021/09/02 10:25:38;;;;;;;8.00;4.95;;;;;;;20.19;53.37;101608.80;1809079;78;25753;-63
2021/09/02 10:28:17;;;;;;;8.95;5.17;;;;;;;20.16;53.67;101609.01;1809410;77;25387;-63
2021/09/02 10:30:48;;;;;;;13.25;5.40;;;;;;;20.21;53.07;101604.13;1778408;79;27449;-63
2021/09/02 10:33:35;;;;;;;;;;;;;;;20.21;53.07;101604.13;1778508;78;26653;-63
2021/09/02 10:36:06;;;;;;;10.08;5.33;;;;;;;20.29;52.35;101599.52;1773082;78;25773;-63
2021/09/02 10:38:50;;;;;;;9.20;4.87;;;;;;;20.33;53.05;101601.92;1779313;79;26372;-63
2021/09/02 10:41:40;;;;;;;11.97;5.28;;;;;;;20.38;52.75;101597.06;1736562;79;25685;-63
2021/09/02 10:44:15;;;;;;;6.28;4.62;;;;;;;20.38;52.41;101577.09;1770504;80;26880;-63
2021/09/02 10:46:47;;;;;;;13.28;5.17;;;;;;;20.41;52.22;101572.34;1775796;78;26429;-64
2021/09/02 10:49:37;;;;;;;17.98;8.63;;;;;;;20.64;50.51;101603.91;1797166;78;25760;-63
2021/09/02 10:52:27;;;;;;;14.35;5.25;;;;;;;20.67;51.84;101607.28;1809534;77;25807;-64
2021/09/02 10:54:53;;;;;;;7.83;4.50;;;;;;;20.83;51.55;101607.04;1782822;79;25689;-64
2021/09/02 10:57:19;;;;;;;7.87;5.28;;;;;;;21.01;51.47;101616.63;1792791;79;27462;-64
2021/09/02 10:59:50;;;;;;;12.50;6.35;;;;;;;21.12;51.70;101621.80;1762627;80;25897;-65
2021/09/02 11:02:24;;;;;;;16.02;5.50;;;;;;;21.22;51.75;101604.70;1782288;79;26412;-65
2021/09/02 11:05:03;;;;;;;10.28;5.15;;;;;;;21.29;51.18;101608.72;1781652;78;26597;-64
2021/09/02 11:07:47;;;;;;;13.98;4.85;;;;;;;21.22;50.61;101611.52;1736602;80;25835;-64
2021/09/02 11:10:19;;;;;;;14.60;4.97;;;;;;;21.29;50.49;101598.30;1810459;78;27467;-64
2021/09/02 11:12:47;;;;;;;5.42;4.40;;;;;;;21.44;47.78;101612.67;1803295;78;25717;-64
2021/09/02 11:15:23;;;;;;;6.60;4.65;;;;;;;21.37;49.19;101610.40;1814655;77;25672;-65
2021/09/02 11:17:53;;;;;;;11.48;5.05;;;;;;;21.43;49.95;101604.11;1814618;76;26122;-63
2021/09/02 11:20:20;;;;;;;6.65;4.65;;;;;;;;;;1785185;78;25923;-64
2021/09/02 11:22:47;;;;;;;10.72;5.47;;;;;;;21.51;49.70;101595.74;1794147;79;27422;-63
2021/09/02 11:25:14;;;;;;;11.18;5.53;;;;;;;21.50;48.62;101597.22;1754952;80;25823;-63